Time;durP1;ratioP1;P1;durP2;ratioP2;P2;SDS_P1;SDS_P2;PMS_P1;PMS_P2;Temp;Humidity;BMP_temperature;BMP_pressure;BME280_temperature;BME280_humidity;BME280_pressure;Samples;Min_cycle;Max_cycle;Signal;HPM_P1;HPM_P2
2021/05/17 00:00:31;;;;;;;39.30;20.00;;;;;;;20.96;42.24;99581.44;5113152;28;20579;-56
2021/05/17 00:03:00;;;;;;;43.40;22.37;;;;;;;20.45;43.68;99584.06;5115622;28;20763;-57
2021/05/17 00:05:29;;;;;;;45.10;23.47;;;;;;;20.42;43.69;99584.13;5114000;28;20480;-56
2021/05/17 00:07:56;;;;;;;26.87;15.10;;;;;;;20.50;43.66;99584.84;5115015;28;20784;-56
2021/05/17 00:10:27;;;;;;;23.13;12.50;;;;;;;20.23;44.28;99583.56;5113543;28;20484;-56
2021/05/17 00:12:54;;;;;;;27.60;15.83;;;;;;;20.47;43.80;99576.19;5115213;28;20497;-57
2021/05/17 00:15:22;;;;;;;21.13;12.10;;;;;;;20.44;43.53;99574.47;5113831;28;20472;-55
2021/05/17 00:17:51;;;;;;;13.97;8.03;;;;;;;20.89;42.14;99578.94;5114628;28;20484;-56
2021/05/17 00:20:19;;;;;;;20.00;12.10;;;;;;;21.08;41.93;99569.81;5113529;28;20480;-57
2021/05/17 00:22:46;;;;;;;25.53;14.53;;;;;;;21.27;41.59;99558.03;5118735;28;20456;-55
2021/05/17 00:25:16;;;;;;;14.07;7.87;;;;;;;21.51;41.02;99565.41;5117541;28;20504;-54
2021/05/17 00:27:44;;;;;;;19.17;11.43;;;;;;;21.25;41.76;99558.97;5118478;28;20456;-55
2021/05/17 00:30:12;;;;;;;19.83;10.50;;;;;;;20.74;42.94;99563.47;5117608;28;20902;-56
2021/05/17 00:32:40;;;;;;;19.30;12.13;;;;;;;20.76;43.13;99562.53;5118866;28;20455;-57
2021/05/17 00:35:09;;;;;;;19.13;11.40;;;;;;;21.08;42.06;99568.06;5117628;28;20508;-54
2021/05/17 00:37:36;;;;;;;20.00;10.90;;;;;;;20.92;42.64;99564.91;5118446;28;20475;-53
2021/05/17 00:40:04;;;;;;;15.63;7.80;;;;;;;20.48;43.60;99559.56;5117550;28;20480;-54
2021/05/17 00:42:31;;;;;;;15.47;7.60;;;;;;;21.07;41.87;99560.25;5118620;28;20806;-54
2021/05/17 00:44:59;;;;;;;16.17;8.17;;;;;;;21.12;41.83;99566.25;5117329;27;20484;-55
2021/05/17 00:47:28;;;;;;;19.77;9.57;;;;;;;20.89;42.43;99567.56;5118281;28;20460;-55
2021/05/17 00:49:55;;;;;;;17.50;8.10;;;;;;;21.48;40.76;99565.47;5117034;28;20786;-55
2021/05/17 00:52:24;;;;;;;14.30;7.80;;;;;;;21.21;41.69;99557.34;5118383;28;20470;-54
2021/05/17 00:54:52;;;;;;;15.07;8.57;;;;;;;20.86;42.85;99567.66;5116960;28;20500;-53
2021/05/17 00:57:19;;;;;;;17.03;9.37;;;;;;;21.01;42.24;99564.69;5118298;28;20456;-56
2021/05/17 00:59:47;;;;;;;17.50;8.77;;;;;;;21.04;42.16;99559.38;5116969;28;20965;-57
2021/05/17 01:02:15;;;;;;;17.40;8.80;;;;;;;20.85;42.80;99569.41;5118393;28;20465;-55
2021/05/17 01:04:42;;;;;;;16.00;8.23;;;;;;;20.76;42.97;99569.53;5116809;28;20560;-57
2021/05/17 01:07:10;;;;;;;17.43;9.03;;;;;;;20.80;43.06;99562.50;5117865;28;20452;-55
2021/05/17 01:09:39;;;;;;;19.60;9.30;;;;;;;20.80;43.18;99560.72;5116899;28;20564;-57
2021/05/17 01:12:08;;;;;;;17.93;9.67;;;;;;;20.81;42.93;99562.44;5118081;28;20548;-53
2021/05/17 01:14:35;;;;;;;19.70;10.30;;;;;;;21.02;42.21;99561.19;5116525;28;20476;-53
2021/05/17 01:17:03;;;;;;;18.73;10.00;;;;;;;20.89;42.64;99559.72;5117778;28;20897;-54
2021/05/17 01:19:38;;;;;;;24.10;12.07;;;;;;;20.84;43.01;99564.13;5116654;28;20477;-54
2021/05/17 01:22:10;;;;;;;23.37;11.97;;;;;;;20.89;42.77;99564.94;5118321;28;20477;-54
2021/05/17 01:24:40;;;;;;;23.63;12.87;;;;;;;21.00;42.25;99572.59;5116422;28;20479;-56
2021/05/17 01:27:08;;;;;;;26.50;14.63;;;;;;;21.21;41.98;99562.56;5117699;28;20788;-54
2021/05/17 01:29:35;;;;;;;18.50;10.70;;;;;;;21.30;41.46;99559.75;5116436;28;20779;-55
2021/05/17 01:32:03;;;;;;;20.43;11.67;;;;;;;21.22;41.70;99554.66;5117539;28;20878;-56
2021/05/17 01:34:30;;;;;;;24.87;12.10;;;;;;;20.98;42.00;99563.91;5116516;28;20469;-52
2021/05/17 01:37:00;;;;;;;24.97;11.20;;;;;;;20.99;42.23;99561.25;5117810;28;20457;-52
2021/05/17 01:39:28;;;;;;;19.40;11.07;;;;;;;20.76;42.54;99564.28;5116376;28;20476;-55
2021/05/17 01:41:57;;;;;;;29.63;14.33;;;;;;;20.96;42.14;99563.09;5117654;28;20547;-50
2021/05/17 01:44:25;;;;;;;20.07;11.07;;;;;;;20.80;42.18;99563.34;5116009;28;20511;-54
2021/05/17 01:46:52;;;;;;;21.63;13.07;;;;;;;20.97;41.95;99570.88;5116934;28;20453;-55
2021/05/17 01:49:21;;;;;;;24.67;12.40;;;;;;;21.14;41.58;99559.22;5110930;28;20627;-53
2021/05/17 01:51:49;;;;;;;24.10;11.90;;;;;;;21.21;41.29;99565.19;5117274;28;20465;-56
2021/05/17 01:54:17;;;;;;;18.20;10.90;;;;;;;21.48;40.66;99561.09;5116079;28;20469;-54
2021/05/17 01:56:45;;;;;;;18.63;10.00;;;;;;;21.64;39.93;99569.47;5116878;28;20543;-55
2021/05/17 01:59:13;;;;;;;19.97;9.80;;;;;;;21.58;39.76;99566.97;5112917;28;20883;-55
2021/05/17 02:01:40;;;;;;;20.20;9.20;;;;;;;21.81;39.27;99569.13;5117413;28;20769;-52
2021/05/17 02:04:08;;;;;;;19.70;10.60;;;;;;;21.71;39.34;99557.13;5115870;28;20505;-53
2021/05/17 02:06:35;;;;;;;15.87;9.67;;;;;;;21.75;39.52;99560.53;5116496;28;20934;-54
2021/05/17 02:09:03;;;;;;;17.90;9.40;;;;;;;21.71;39.37;99560.63;5115589;28;20938;-57
2021/05/17 02:11:30;;;;;;;18.07;10.70;;;;;;;21.62;39.45;99563.41;5116976;28;20453;-53
2021/05/17 02:13:58;;;;;;;19.33;11.27;;;;;;;21.36;39.81;99561.34;5115137;28;20491;-54
2021/05/17 02:16:26;;;;;;;19.97;10.63;;;;;;;20.93;41.29;99571.00;5116615;28;20810;-53
2021/05/17 02:18:53;;;;;;;20.70;10.30;;;;;;;20.41;42.42;99566.66;5115054;28;20473;-53
2021/05/17 02:21:21;;;;;;;17.27;10.57;;;;;;;21.13;40.89;99565.34;5116802;28;20824;-54
2021/05/17 02:23:48;;;;;;;15.57;9.60;;;;;;;21.76;39.37;99564.88;5115378;28;20453;-54
2021/05/17 02:26:17;;;;;;;22.43;9.63;;;;;;;21.53;40.33;99561.00;5116696;28;20481;-54
2021/05/17 02:28:44;;;;;;;19.63;10.53;;;;;;;21.87;39.15;99560.22;5113421;28;20516;-54
2021/05/17 02:31:12;;;;;;;23.23;11.30;;;;;;;21.85;39.45;99562.03;5116550;28;20488;-54
2021/05/17 02:33:40;;;;;;;26.50;13.30;;;;;;;21.80;39.60;99561.28;5115353;28;20548;-56
2021/05/17 02:36:08;;;;;;;23.33;10.20;;;;;;;21.81;39.45;99563.88;5116388;28;20789;-54
2021/05/17 02:38:36;;;;;;;24.40;11.93;;;;;;;21.67;39.66;99566.78;5114987;28;20481;-56
2021/05/17 02:41:04;;;;;;;22.43;11.40;;;;;;;21.48;40.05;99561.09;5116296;28;20476;-54
2021/05/17 02:43:32;;;;;;;18.00;10.63;;;;;;;21.65;39.80;99563.34;5115899;28;20464;-56
2021/05/17 02:46:01;;;;;;;20.77;11.10;;;;;;;21.60;39.37;99565.22;5114452;28;21001;-57
2021/05/17 02:48:29;;;;;;;18.93;10.67;;;;;;;21.49;39.73;99567.22;5115760;28;20477;-53
2021/05/17 02:50:58;;;;;;;18.73;10.27;;;;;;;21.68;39.18;99560.63;5114591;28;20964;-55
2021/05/17 02:53:46;;;;;;;20.10;10.50;;;;;;;21.65;39.24;99563.34;5116442;28;20445;-55
2021/05/17 02:56:14;;;;;;;22.40;11.03;;;;;;;21.40;39.77;99555.16;5115848;28;20449;-54
2021/05/17 02:58:43;;;;;;;24.77;11.00;;;;;;;21.03;40.33;99572.53;5114434;28;20465;-51
2021/05/17 03:01:11;;;;;;;19.87;11.10;;;;;;;20.85;40.83;99569.41;5115807;28;20579;-52
2021/05/17 03:03:43;;;;;;;22.07;10.70;;;;;;;20.82;40.75;99568.56;5115247;28;20456;-53
2021/05/17 03:06:18;;;;;;;16.87;9.60;;;;;;;20.82;40.55;99569.41;5115961;28;20587;-54
2021/05/17 03:08:56;;;;;;;22.87;13.20;;;;;;;20.62;41.46;99573.28;5115011;28;20476;-54
2021/05/17 03:11:24;;;;;;;20.73;11.00;;;;;;;19.79;43.12;99572.91;5115894;28;20808;-54
2021/05/17 03:13:52;;;;;;;21.10;11.03;;;;;;;19.71;43.43;99570.41;5114392;28;20456;-54
2021/05/17 03:16:21;;;;;;;18.27;11.43;;;;;;;19.82;43.42;99578.09;5115752;28;20547;-53
2021/05/17 03:18:49;;;;;;;17.97;9.17;;;;;;;19.90;43.07;99580.59;5114586;28;20473;-55
2021/05/17 03:21:19;;;;;;;15.17;9.23;;;;;;;20.02;43.07;99587.41;5115762;28;20741;-56
2021/05/17 03:23:48;;;;;;;17.00;9.57;;;;;;;19.35;44.72;99580.50;5114579;28;20460;-53
2021/05/17 03:26:15;;;;;;;16.07;8.60;;;;;;;19.68;44.08;99589.63;5115402;28;20567;-53
2021/05/17 03:28:43;;;;;;;14.23;7.77;;;;;;;19.25;45.01;99583.25;5114108;28;20568;-55
2021/05/17 03:31:10;;;;;;;18.50;8.60;;;;;;;19.56;43.86;99588.06;5115447;28;20933;-54
2021/05/17 03:33:37;;;;;;;17.27;8.70;;;;;;;19.73;43.60;99584.31;5114379;28;21020;-54
2021/05/17 03:36:05;;;;;;;17.63;9.47;;;;;;;19.74;43.95;99593.03;5115532;28;20479;-55
2021/05/17 03:38:33;;;;;;;14.43;8.57;;;;;;;19.86;43.40;99590.25;5114929;28;20471;-52
2021/05/17 03:41:00;;;;;;;16.87;8.00;;;;;;;19.77;43.43;99593.84;5114963;28;20472;-52
2021/05/17 03:43:27;;;;;;;15.87;8.53;;;;;;;19.63;43.86;99593.22;5115512;28;20467;-53
2021/05/17 03:45:54;;;;;;;20.07;8.70;;;;;;;20.03;42.97;99584.78;5111618;28;20522;-52
2021/05/17 03:48:21;;;;;;;17.70;8.97;;;;;;;20.03;42.96;99587.38;5114574;28;20480;-54
2021/05/17 03:50:48;;;;;;;17.93;9.50;;;;;;;20.32;42.29;99583.44;5113733;28;20476;-53
2021/05/17 03:53:17;;;;;;;17.63;8.30;;;;;;;20.12;42.71;99588.13;5115257;28;21007;-51
2021/05/17 03:55:45;;;;;;;16.03;8.90;;;;;;;19.63;43.61;99598.44;5114208;28;20473;-53
2021/05/17 03:58:12;;;;;;;17.87;8.50;;;;;;;19.90;43.24;99589.28;5119368;28;20478;-53
2021/05/17 04:00:39;;;;;;;14.90;7.97;;;;;;;19.88;43.32;99585.00;5118278;28;20850;-53
2021/05/17 04:03:13;;;;;;;14.13;7.63;;;;;;;19.55;43.77;99588.91;5119721;28;20452;-51
2021/05/17 04:05:52;;;;;;;13.33;8.03;;;;;;;19.69;43.44;99585.28;5118153;27;20487;-53
2021/05/17 04:12:28;;;;;;;18.67;8.50;;;;;;;19.92;43.06;99584.91;5118655;28;20497;-56
2021/05/17 04:14:00;;;;;;;17.47;8.10;;;;;;;20.12;42.77;99602.09;5117815;28;20547;-55
2021/05/17 04:16:28;;;;;;;22.30;9.33;;;;;;;20.12;42.51;99596.84;5119171;28;20453;-52
2021/05/17 04:18:55;;;;;;;21.10;11.27;;;;;;;20.68;41.68;99606.38;5118131;28;20892;-55
2021/05/17 04:21:22;;;;;;;18.73;11.17;;;;;;;21.00;40.71;99601.44;5119353;28;20885;-52
2021/05/17 04:23:49;;;;;;;21.33;10.83;;;;;;;20.80;41.37;99605.28;5118061;28;20550;-57
2021/05/17 04:26:17;;;;;;;17.90;10.23;;;;;;;20.04;43.14;99610.06;5118811;28;20484;-55
2021/05/17 04:28:44;;;;;;;17.47;9.20;;;;;;;19.42;44.79;99621.34;5117281;28;20485;-54
2021/05/17 04:31:11;;;;;;;14.57;8.90;;;;;;;20.06;43.44;99615.28;5119019;28;20491;-51
2021/05/17 04:33:38;;;;;;;19.70;9.33;;;;;;;19.78;43.99;99624.38;5118051;28;20452;-55
2021/05/17 04:36:06;;;;;;;13.90;8.80;;;;;;;20.06;43.95;99620.50;5118731;28;20925;-54
2021/05/17 04:38:33;;;;;;;22.10;9.13;;;;;;;20.00;44.29;99623.22;5118527;28;20496;-53
2021/05/17 04:41:00;;;;;;;14.27;8.50;;;;;;;19.50;45.65;99635.22;5118285;28;20457;-50
2021/05/17 04:43:28;;;;;;;17.50;7.80;;;;;;;19.37;45.53;99631.88;5118668;28;20560;-53
2021/05/17 04:45:56;;;;;;;16.63;7.70;;;;;;;19.51;45.30;99639.56;5117469;28;20484;-52
2021/05/17 04:48:23;;;;;;;15.83;8.20;;;;;;;19.00;47.12;99646.22;5118194;28;20527;-55
2021/05/17 04:50:50;;;;;;;16.60;8.17;;;;;;;19.29;46.45;99644.19;5117171;28;20794;-52
2021/05/17 04:53:17;;;;;;;13.93;8.40;;;;;;;19.35;45.75;99648.47;5118634;28;20485;-55
2021/05/17 04:55:44;;;;;;;14.80;8.50;;;;;;;19.44;46.32;99645.75;5116991;28;20512;-54
2021/05/17 04:58:11;;;;;;;19.87;8.37;;;;;;;19.96;44.79;99638.97;5118324;28;20477;-54
2021/05/17 05:00:39;;;;;;;16.13;8.97;;;;;;;19.55;46.04;99646.47;5117217;28;20575;-52
2021/05/17 05:03:06;;;;;;;13.87;8.60;;;;;;;19.23;46.85;99646.88;5118054;28;20885;-55
2021/05/17 05:05:33;;;;;;;16.90;9.50;;;;;;;19.61;45.97;99649.88;5116947;28;20560;-52
2021/05/17 05:08:00;;;;;;;15.50;9.30;;;;;;;19.78;45.49;99647.03;5117255;28;20508;-51
2021/05/17 05:10:27;;;;;;;19.43;8.73;;;;;;;20.14;44.66;99646.56;5116640;28;20567;-53
2021/05/17 05:12:54;;;;;;;15.27;8.90;;;;;;;20.53;43.82;99644.19;5118182;28;20534;-52
2021/05/17 05:15:21;;;;;;;16.87;8.67;;;;;;;20.51;44.07;99641.59;5116849;28;20485;-51
2021/05/17 05:17:49;;;;;;;13.97;9.13;;;;;;;20.58;43.54;99647.59;5117861;28;20479;-54
2021/05/17 05:20:17;;;;;;;14.67;9.17;;;;;;;20.53;43.65;99643.31;5116361;28;20550;-53
2021/05/17 05:22:44;;;;;;;16.53;8.97;;;;;;;20.29;44.77;99651.56;5118042;28;20457;-53
2021/05/17 05:25:12;;;;;;;16.53;9.80;;;;;;;21.04;42.80;99643.28;5116428;28;20862;-54
2021/05/17 05:27:42;;;;;;;16.57;9.97;;;;;;;21.23;42.26;99634.19;5117646;28;20481;-55
2021/05/17 05:30:20;;;;;;;25.70;14.00;;;;;;;21.16;43.12;99633.44;5116714;28;20487;-52
2021/05/17 05:32:51;;;;;;;24.80;11.60;;;;;;;21.65;41.53;99646.44;5117825;28;20969;-56
2021/05/17 05:35:19;;;;;;;15.67;9.50;;;;;;;21.77;41.09;99645.34;5116120;28;20481;-55
2021/05/17 05:37:46;;;;;;;15.40;9.93;;;;;;;21.97;41.11;99637.00;5117526;28;20509;-56
2021/05/17 05:40:14;;;;;;;15.90;10.57;;;;;;;21.79;41.94;99646.19;5116063;28;20485;-54
2021/05/17 05:42:41;;;;;;;19.10;10.50;;;;;;;21.25;43.30;99648.13;5117587;28;20831;-55
2021/05/17 05:45:10;;;;;;;18.83;10.40;;;;;;;21.89;42.21;99645.06;5116188;28;20483;-54
2021/05/17 05:47:37;;;;;;;15.80;9.73;;;;;;;21.89;41.64;99642.44;5117001;28;20486;-56
2021/05/17 05:50:06;;;;;;;21.67;10.50;;;;;;;21.75;41.59;99636.63;5116107;28;20481;-55
2021/05/17 05:52:34;;;;;;;20.17;10.20;;;;;;;21.83;41.76;99647.81;5117491;28;20782;-56
2021/05/17 05:55:04;;;;;;;18.40;9.83;;;;;;;21.95;41.20;99644.91;5114594;28;20564;-55
2021/05/17 05:57:38;;;;;;;21.90;11.30;;;;;;;21.84;41.95;99658.28;5117060;28;20770;-56
2021/05/17 06:00:07;;;;;;;15.07;10.07;;;;;;;21.26;43.58;99660.34;5115780;28;20487;-53
2021/05/17 06:02:34;;;;;;;20.50;10.20;;;;;;;21.33;43.03;99663.72;5116727;28;20544;-55
2021/05/17 06:05:01;;;;;;;15.30;10.37;;;;;;;21.08;44.29;99664.22;5116014;28;20998;-55
2021/05/17 06:07:28;;;;;;;17.60;10.60;;;;;;;21.40;43.72;99663.59;5116372;28;20483;-56
2021/05/17 06:09:56;;;;;;;14.40;10.37;;;;;;;21.75;42.63;99670.75;5114485;28;20670;-56
2021/05/17 06:12:24;;;;;;;17.00;10.57;;;;;;;21.77;42.64;99666.31;5116935;28;20457;-54
2021/05/17 06:14:57;;;;;;;25.67;11.47;;;;;;;21.44;42.66;99680.97;5115636;28;20557;-55
2021/05/17 06:17:25;;;;;;;19.53;10.70;;;;;;;21.58;42.78;99675.44;5116905;28;20452;-56
2021/05/17 06:19:53;;;;;;;18.70;11.00;;;;;;;22.23;41.97;99686.31;5114439;28;20481;-55
2021/05/17 06:22:21;;;;;;;18.50;12.03;;;;;;;22.37;41.72;99680.69;5117033;28;20457;-53
2021/05/17 06:24:48;;;;;;;22.23;10.60;;;;;;;22.25;41.58;99679.25;5115446;28;20487;-53
2021/05/17 06:27:17;;;;;;;22.40;11.10;;;;;;;22.63;40.81;99683.63;5116087;28;20487;-54
2021/05/17 06:29:45;;;;;;;21.40;10.63;;;;;;;22.71;40.36;99686.06;5115306;28;20483;-52
2021/05/17 06:32:13;;;;;;;19.57;12.23;;;;;;;22.46;41.39;99681.41;5116824;28;20459;-52
2021/05/17 06:34:41;;;;;;;35.90;13.93;;;;;;;22.31;42.74;99686.09;5114907;28;20910;-55
2021/05/17 06:37:08;;;;;;;41.30;15.00;;;;;;;22.32;42.99;99698.34;5116055;28;20540;-54
2021/05/17 06:39:36;;;;;;;34.33;14.80;;;;;;;22.30;43.33;99697.50;5114312;28;20856;-55
2021/05/17 06:42:04;;;;;;;19.70;10.90;;;;;;;22.74;41.11;99696.47;5116362;28;20491;-54
2021/05/17 06:44:32;;;;;;;22.87;14.40;;;;;;;22.88;41.34;99698.75;5115062;28;20575;-51
2021/05/17 06:47:00;;;;;;;27.73;16.13;;;;;;;23.11;40.92;99705.19;5116035;28;20477;-54
2021/05/17 06:49:29;;;;;;;19.50;12.37;;;;;;;22.14;42.55;99702.25;5114916;28;20478;-54
2021/05/17 06:51:56;;;;;;;17.00;11.37;;;;;;;22.51;41.29;99706.69;5116371;28;20787;-51
2021/05/17 06:54:27;;;;;;;23.63;11.93;;;;;;;22.36;41.68;99709.66;5115000;28;20477;-51
2021/05/17 06:56:58;;;;;;;19.17;11.97;;;;;;;22.32;42.58;99708.00;5115787;28;20960;-51
2021/05/17 06:59:27;;;;;;;19.17;11.33;;;;;;;22.36;42.21;99712.28;5114781;28;20508;-53
2021/05/17 07:01:56;;;;;;;19.67;11.80;;;;;;;23.14;41.10;99713.84;5116174;28;20846;-51
2021/05/17 07:04:24;;;;;;;20.67;12.17;;;;;;;22.77;41.30;99710.41;5112921;28;20472;-50
2021/05/17 07:06:54;;;;;;;22.20;11.33;;;;;;;23.00;41.20;99708.09;5115616;28;20481;-54
2021/05/17 07:12:10;;;;;;;18.30;11.13;;;;;;;23.84;39.41;99705.78;5116090;28;20552;-54
2021/05/17 07:14:37;;;;;;;17.50;11.43;;;;;;;23.79;39.57;99702.44;5114651;28;20562;-53
2021/05/17 07:17:06;;;;;;;17.93;11.93;;;;;;;23.92;39.89;99708.16;5115539;28;20481;-57
2021/05/17 07:19:33;;;;;;;23.87;10.83;;;;;;;23.58;40.09;99713.53;5114528;28;20481;-52
2021/05/17 07:24:46;;;;;;;20.37;12.20;;;;;;;23.32;40.45;99715.16;5111721;28;20484;-54
2021/05/17 07:27:13;;;;;;;21.90;10.60;;;;;;;22.81;41.74;99718.25;5115067;28;21034;-54
2021/05/17 07:29:40;;;;;;;20.23;12.17;;;;;;;23.18;41.05;99719.91;5114187;28;20478;-55
2021/05/17 07:32:10;;;;;;;20.00;9.73;;;;;;;22.95;41.05;99718.72;5115556;28;20453;-54
2021/05/17 07:34:37;;;;;;;22.87;12.00;;;;;;;23.37;40.87;99716.78;5114417;28;20485;-52
2021/05/17 07:37:05;;;;;;;22.83;10.63;;;;;;;24.48;38.81;99711.72;5115312;28;20457;-55
2021/05/17 07:39:33;;;;;;;19.60;11.10;;;;;;;24.47;38.26;99712.66;5114381;28;20480;-53
2021/05/17 07:42:00;;;;;;;16.87;10.80;;;;;;;24.40;38.68;99717.25;5115669;28;20533;-56
2021/05/17 07:44:28;;;;;;;18.97;10.07;;;;;;;24.24;38.48;99727.41;5112912;28;20564;-51
2021/05/17 07:46:56;;;;;;;17.17;9.97;;;;;;;24.84;37.68;99722.00;5115286;28;20507;-53
2021/05/17 07:49:34;;;;;;;17.33;10.87;;;;;;;24.55;38.22;99726.44;5113824;28;20489;-54
2021/05/17 07:52:03;;;;;;;16.00;9.40;;;;;;;23.92;39.88;99730.13;5115646;28;20540;-53
2021/05/17 07:54:30;;;;;;;16.60;9.27;;;;;;;23.73;38.52;99735.06;5114209;28;20546;-53
2021/05/17 07:56:58;;;;;;;13.50;8.73;;;;;;;24.12;38.26;99729.53;5114501;28;20451;-51
2021/05/17 07:59:29;;;;;;;17.40;8.50;;;;;;;25.06;36.83;99734.44;5110662;28;20482;-55
2021/05/17 08:01:56;;;;;;;32.33;19.13;;;;;;;25.38;36.51;99729.78;5124221;28;20459;-55
2021/05/17 08:04:24;;;;;;;22.23;12.10;;;;;;;24.16;37.33;99721.53;5114233;28;20490;-56
2021/05/17 08:06:52;;;;;;;16.93;9.60;;;;;;;23.48;39.56;99738.38;5113857;28;20475;-50
2021/05/17 08:09:19;;;;;;;14.87;8.73;;;;;;;24.62;37.28;99730.59;5113441;28;20483;-52
2021/05/17 08:11:46;;;;;;;39.63;22.57;;;;;;;24.62;37.12;99727.09;5115242;28;20554;-54
2021/05/17 08:14:15;;;;;;;26.03;14.43;;;;;;;24.89;37.55;99722.72;5113951;28;20484;-51
2021/05/17 08:16:42;;;;;;;13.33;7.20;;;;;;;25.35;36.29;99722.00;5114982;28;20922;-51
2021/05/17 08:19:09;;;;;;;17.90;9.93;;;;;;;24.75;36.97;99720.50;5113919;28;20482;-53
2021/05/17 08:21:37;;;;;;;15.10;8.70;;;;;;;25.14;36.26;99724.50;5114988;28;20538;-53
2021/05/17 08:24:05;;;;;;;10.20;6.17;;;;;;;23.79;37.84;99732.22;5113879;27;20478;-54
2021/05/17 08:26:32;;;;;;;18.93;8.20;;;;;;;23.99;37.42;99730.78;5114668;28;20465;-51
2021/05/17 08:28:59;;;;;;;24.53;11.80;;;;;;;24.22;36.67;99726.63;5114006;27;20475;-51
2021/05/17 08:31:26;;;;;;;31.47;14.10;;;;;;;24.90;34.88;99724.44;5114849;28;20455;-50
2021/05/17 08:33:54;;;;;;;12.53;5.20;;;;;;;24.21;34.48;99725.75;5114108;27;20524;-55
2021/05/17 08:36:21;;;;;;;16.47;5.40;;;;;;;25.59;33.06;99729.97;5114764;28;20481;-55
2021/05/17 08:38:48;;;;;;;62.17;23.77;;;;;;;24.91;34.32;99720.03;5113366;27;20558;-50
2021/05/17 08:41:16;;;;;;;29.17;9.43;;;;;;;25.35;33.78;99719.34;5114788;28;20554;-54
2021/05/17 08:43:43;;;;;;;18.13;5.67;;;;;;;26.04;32.54;99727.41;5117594;27;20472;-51
2021/05/17 08:46:11;;;;;;;8.50;4.30;;;;;;;26.04;33.09;99727.41;5118666;28;20800;-52
2021/05/17 08:48:46;;;;;;;11.10;4.87;;;;;;;25.30;32.34;99726.56;5116810;27;20504;-55
2021/05/17 08:51:18;;;;;;;7.23;3.57;;;;;;;24.05;34.49;99724.47;5118203;28;20453;-53
2021/05/17 08:53:45;;;;;;;8.87;4.10;;;;;;;23.45;33.68;99735.84;5117396;28;20459;-50
2021/05/17 08:56:14;;;;;;;11.23;4.50;;;;;;;24.38;32.01;99730.50;5118454;28;20782;-53
2021/05/17 08:58:41;;;;;;;9.07;3.60;;;;;;;25.00;31.67;99726.72;5117052;28;20476;-55
2021/05/17 09:01:08;;;;;;;11.60;3.93;;;;;;;24.81;32.12;99724.72;5118068;28;20481;-54
2021/05/17 09:03:53;;;;;;;10.17;5.40;;;;;;;25.45;31.12;99720.75;5116584;28;20507;-52
2021/05/17 09:06:22;;;;;;;13.97;3.97;;;;;;;25.44;31.11;99713.72;5118360;28;20504;-54
2021/05/17 09:08:49;;;;;;;8.90;3.50;;;;;;;25.85;30.70;99723.69;5116959;28;20508;-52
2021/05/17 09:11:31;;;;;;;8.47;2.97;;;;;;;25.86;31.12;99720.16;5117905;28;20459;-53
2021/05/17 09:14:11;;;;;;;8.67;3.13;;;;;;;25.46;30.29;99716.31;5116635;28;20505;-56
2021/05/17 09:16:46;;;;;;;11.30;3.57;;;;;;;25.15;31.02;99728.84;5117669;28;20461;-54
2021/05/17 09:19:13;;;;;;;9.30;3.17;;;;;;;24.77;31.71;99723.09;5116781;27;21005;-55
2021/05/17 09:22:04;;;;;;;18.17;6.77;;;;;;;25.29;30.85;99725.72;5117927;28;20926;-54
2021/05/17 09:24:43;;;;;;;5.97;2.80;;;;;;;25.40;30.74;99722.69;5116507;27;20566;-55
2021/05/17 09:27:13;;;;;;;7.27;3.00;;;;;;;24.99;31.69;99728.53;5117535;28;20481;-55
2021/05/17 09:32:36;;;;;;;6.17;2.53;;;;;;;24.52;32.55;99726.53;5116982;28;20575;-52
2021/05/17 09:35:05;;;;;;;8.40;3.87;;;;;;;24.81;31.42;99717.69;5116369;27;20479;-55
2021/05/17 09:37:44;;;;;;;7.30;3.17;;;;;;;25.80;30.04;99730.94;5117527;28;20460;-52
2021/05/17 09:40:22;;;;;;;7.20;3.33;;;;;;;25.61;30.42;99725.47;5116516;27;20500;-54
2021/05/17 09:43:03;;;;;;;12.90;6.23;;;;;;;25.21;31.45;99726.00;5117605;28;20458;-53
2021/05/17 09:45:47;;;;;;;22.13;7.50;;;;;;;25.39;29.66;99720.97;5115893;27;20481;-52
2021/05/17 09:48:15;;;;;;;8.57;3.60;;;;;;;25.77;29.44;99723.13;5116708;27;20478;-53
2021/05/17 09:51:03;;;;;;;6.10;2.67;;;;;;;25.63;30.10;99722.78;5113319;28;20475;-54
2021/05/17 09:53:31;;;;;;;6.77;2.97;;;;;;;24.91;30.89;99715.59;5115612;28;20817;-53
2021/05/17 09:55:58;;;;;;;8.40;4.20;;;;;;;25.80;30.15;99720.38;5115591;28;20475;-56
2021/05/17 09:58:32;;;;;;;6.13;2.40;;;;;;;25.71;29.73;99726.88;5116685;28;20480;-54
2021/05/17 10:01:11;;;;;;;5.70;2.17;;;;;;;25.30;29.31;99721.28;5116414;28;21004;-54
2021/05/17 10:03:41;;;;;;;9.10;3.33;;;;;;;25.53;28.50;99723.13;5115386;27;20453;-55
2021/05/17 10:06:10;;;;;;;8.20;2.07;;;;;;;25.03;30.16;99724.84;5116502;28;20470;-51
2021/05/17 10:08:38;;;;;;;5.80;2.70;;;;;;;25.38;30.01;99726.31;5114862;28;20931;-56
2021/05/17 10:11:05;;;;;;;18.37;9.30;;;;;;;25.40;30.38;99725.34;5116421;28;20469;-52
2021/05/17 10:13:34;;;;;;;10.70;5.03;;;;;;;24.97;31.34;99724.22;5116664;28;20759;-54
2021/05/17 10:16:04;;;;;;;14.03;7.90;;;;;;;25.68;31.23;99726.97;5113431;28;20489;-55
2021/05/17 10:18:31;;;;;;;8.23;3.60;;;;;;;25.26;31.71;99730.25;5115992;28;20962;-54
2021/05/17 10:20:59;;;;;;;11.80;5.83;;;;;;;25.18;32.25;99730.53;5115080;28;20478;-56
2021/05/17 10:23:27;;;;;;;12.03;6.20;;;;;;;24.82;32.23;99731.75;5116301;28;20480;-53
2021/05/17 10:26:05;;;;;;;9.00;4.83;;;;;;;24.97;32.19;99734.75;5115353;28;20471;-55
2021/05/17 10:28:34;;;;;;;23.27;10.87;;;;;;;24.55;32.16;99739.59;5114848;28;20489;-51
2021/05/17 10:31:13;;;;;;;26.47;15.10;;;;;;;24.33;32.98;99742.94;5113199;28;20462;-55
2021/05/17 10:33:42;;;;;;;23.43;11.33;;;;;;;25.14;32.65;99737.69;5114962;27;20453;-55
2021/05/17 10:36:10;;;;;;;17.93;8.43;;;;;;;25.43;32.23;99743.69;5115869;28;20502;-56
2021/05/17 10:38:43;;;;;;;17.57;7.50;;;;;;;25.01;31.92;99741.66;5114394;28;20549;-54
2021/05/17 10:44:11;;;;;;;8.30;4.10;;;;;;;25.37;31.29;99743.91;5111703;28;20514;-55
2021/05/17 10:46:40;;;;;;;17.30;10.77;;;;;;;26.82;30.32;99738.41;5115425;28;20999;-54
2021/05/17 10:49:29;;;;;;;19.20;9.10;;;;;;;26.98;30.24;99741.28;5111708;27;20473;-56
2021/05/17 10:52:23;;;;;;;12.87;6.90;;;;;;;26.31;30.60;99745.75;5115647;28;20458;-56
2021/05/17 10:55:08;;;;;;;9.03;3.43;;;;;;;25.96;31.84;99755.00;5113158;28;20476;-56
2021/05/17 10:57:47;;;;;;;14.20;5.30;;;;;;;26.61;31.00;99750.72;5114520;28;20766;-52
2021/05/17 11:00:22;;;;;;;16.00;8.20;;;;;;;26.78;30.91;99745.59;5112849;27;20482;-53
2021/05/17 11:03:06;;;;;;;11.13;4.97;;;;;;;25.71;32.95;99750.63;5114191;28;20502;-50
2021/05/17 11:05:33;;;;;;;8.80;3.10;;;;;;;25.95;32.10;99745.31;5112921;28;20563;-54
2021/05/17 11:08:02;;;;;;;11.33;5.07;;;;;;;25.00;33.29;99746.06;5115097;28;20481;-54
2021/05/17 11:10:34;;;;;;;10.17;4.37;;;;;;;25.81;31.43;99747.63;5114146;27;20473;-54
2021/05/17 11:13:06;;;;;;;11.23;4.30;;;;;;;25.66;32.64;99760.50;5115434;28;20777;-55
2021/05/17 11:15:49;;;;;;;11.90;3.70;;;;;;;26.16;31.76;99754.19;5114028;28;20998;-55
2021/05/17 11:18:24;;;;;;;9.97;3.70;;;;;;;25.60;31.15;99751.00;5115098;28;20480;-55
2021/05/17 11:20:54;;;;;;;9.20;4.90;;;;;;;26.05;29.47;99758.19;5112784;28;20479;-55
2021/05/17 11:23:55;;;;;;;8.57;4.10;;;;;;;25.31;30.13;99754.69;5115050;28;20501;-55
2021/05/17 11:26:24;;;;;;;6.43;3.87;;;;;;;24.17;32.13;99765.41;5111999;28;20805;-54
2021/05/17 11:29:05;;;;;;;9.00;4.07;;;;;;;24.17;32.32;99775.94;5113911;28;20487;-56
2021/05/17 11:31:38;;;;;;;5.40;3.40;;;;;;;22.73;35.37;99785.00;5113660;28;20565;-55
2021/05/17 11:34:07;;;;;;;6.37;2.87;;;;;;;22.63;37.24;99779.13;5111855;28;20474;-57
2021/05/17 11:36:39;;;;;;;4.47;2.40;;;;;;;21.87;38.28;99791.25;5115088;28;20776;-56
2021/05/17 11:39:14;;;;;;;6.13;3.27;;;;;;;22.41;39.92;99804.13;5114030;27;20472;-55
2021/05/17 11:41:44;;;;;;;10.40;4.57;;;;;;;21.38;42.62;99812.25;5115187;28;20458;-53
2021/05/17 11:44:13;;;;;;;11.57;5.20;;;;;;;21.66;43.13;99810.88;5113831;28;20469;-55
2021/05/17 11:46:42;;;;;;;6.83;4.80;;;;;;;21.85;42.89;99824.56;5114863;28;20461;-54